Time;durP1;ratioP1;P1;durP2;ratioP2;P2;SDS_P1;SDS_P2;PMS_P1;PMS_P2;Temp;Humidity;BMP_temperature;BMP_pressure;BME280_temperature;BME280_humidity;BME280_pressure;Samples;Min_cycle;Max_cycle;Signal;HPM_P1;HPM_P2
2021/01/05 00:00:01;;;;;;;17.73;6.03;;;;;;;7.77;100.00;96442.50;5006213;28;20602;-79
2021/01/05 00:02:27;;;;;;;11.40;6.15;;;;;;;7.82;100.00;96443.00;4955954;28;20062;-79
2021/01/05 00:04:52;;;;;;;5.05;4.32;;;;;;;7.81;100.00;96449.31;4955940;28;20062;-79
2021/01/05 00:07:18;;;;;;;12.43;3.58;;;;;;;7.87;100.00;96443.56;4996595;28;20033;-79
2021/01/05 00:09:44;;;;;;;7.88;5.10;;;;;;;7.86;100.00;96444.50;5037464;28;20353;-79
2021/01/05 00:12:14;;;;;;;8.50;4.85;;;;;;;7.94;100.00;96455.47;4967938;28;20038;-79
2021/01/05 00:14:45;;;;;;;12.48;5.82;;;;;;;7.94;100.00;96458.13;4955711;28;20035;-79
2021/01/05 00:17:15;;;;;;;11.23;4.13;;;;;;;7.99;100.00;96469.34;4972364;28;20490;-80
2021/01/05 00:19:41;;;;;;;10.02;4.47;;;;;;;7.98;100.00;96469.44;4974521;28;20025;-79
2021/01/05 00:22:07;;;;;;;10.00;5.22;;;;;;;8.01;100.00;96470.06;5020665;28;20113;-80
2021/01/05 00:24:33;;;;;;;8.93;5.38;;;;;;;8.02;100.00;96476.25;5003325;28;20033;-79
2021/01/05 00:26:59;;;;;;;6.03;4.93;;;;;;;8.05;100.00;96481.38;5054068;28;20033;-79
2021/01/05 00:29:25;;;;;;;4.15;3.72;;;;;;;8.01;100.00;96474.53;4993876;28;20497;-80
2021/01/05 00:32:13;;;;;;;10.18;4.72;;;;;;;8.03;100.00;96484.13;4955837;28;20092;-80
2021/01/05 00:34:39;;;;;;;6.20;4.13;;;;;;;7.99;100.00;96474.66;4917643;28;20035;-80
2021/01/05 00:37:05;;;;;;;14.55;7.95;;;;;;;7.94;100.00;96484.75;4933556;28;20024;-80
2021/01/05 00:39:30;;;;;;;20.95;7.75;;;;;;;7.91;100.00;96484.97;4949016;28;20563;-80
2021/01/05 00:41:56;;;;;;;9.82;6.40;;;;;;;7.95;100.00;96491.81;4949562;28;20125;-79
2021/01/05 00:44:22;;;;;;;12.27;5.60;;;;;;;7.97;100.00;96481.88;4984158;28;20038;-80
2021/01/05 00:46:47;;;;;;;11.10;5.70;;;;;;;7.99;100.00;96487.97;5009360;28;20029;-80
2021/01/05 00:49:13;;;;;;;9.48;5.00;;;;;;;8.05;100.00;96484.03;5036323;28;20052;-81
2021/01/05 00:51:39;;;;;;;8.52;4.78;;;;;;;8.10;100.00;96490.75;4955238;28;20033;-79
2021/01/05 00:54:04;;;;;;;4.85;3.40;;;;;;;8.13;100.00;96501.19;4955448;28;20033;-79
2021/01/05 00:56:30;;;;;;;2.80;2.45;;;;;;;8.14;100.00;96508.22;4964453;28;20038;-80
2021/01/05 00:58:56;;;;;;;10.85;3.58;;;;;;;8.23;100.00;96505.88;5012655;28;20084;-80
2021/01/05 01:01:22;;;;;;;6.90;4.20;;;;;;;8.17;100.00;96509.81;4954826;28;20045;-81
2021/01/05 01:03:49;;;;;;;7.10;4.80;;;;;;;8.16;100.00;96514.28;4973548;28;20043;-80
2021/01/05 01:06:15;;;;;;;6.60;3.03;;;;;;;8.19;100.00;96507.91;4968803;28;20104;-80
2021/01/05 01:08:40;;;;;;;4.10;2.95;;;;;;;8.22;100.00;96515.66;5002779;28;20077;-80
2021/01/05 01:11:06;;;;;;;6.57;2.78;;;;;;;8.28;100.00;96525.94;5036347;28;20451;-80
2021/01/05 01:13:32;;;;;;;14.40;3.72;;;;;;;8.30;100.00;96536.50;5027169;28;20017;-80
2021/01/05 01:15:57;;;;;;;8.65;3.28;;;;;;;8.29;100.00;96537.44;4954951;28;20398;-80
2021/01/05 01:18:23;;;;;;;6.90;2.30;;;;;;;8.27;100.00;96553.53;4988369;28;20121;-80
2021/01/05 01:20:49;;;;;;;2.47;1.83;;;;;;;8.28;100.00;96552.56;4955099;28;20096;-80
2021/01/05 01:23:14;;;;;;;1.05;0.95;;;;;;;8.23;100.00;96556.47;4954488;28;20035;-80
2021/01/05 01:25:40;;;;;;;2.10;1.27;;;;;;;8.23;100.00;96560.00;4954481;28;20106;-80
2021/01/05 01:28:05;;;;;;;1.17;1.00;;;;;;;8.25;100.00;96562.53;4971016;28;20027;-80
2021/01/05 01:30:31;;;;;;;0.75;0.75;;;;;;;8.27;100.00;96576.63;4971612;28;20065;-80
2021/01/05 01:32:57;;;;;;;0.30;0.30;;;;;;;8.26;100.00;96575.78;4988185;28;20086;-79
2021/01/05 01:35:22;;;;;;;3.15;1.42;;;;;;;8.16;100.00;96578.22;5006350;28;20037;-79
2021/01/05 01:37:48;;;;;;;1.25;1.15;;;;;;;8.17;100.00;96581.72;5019543;28;20023;-80
2021/01/05 01:40:14;;;;;;;0.10;0.10;;;;;;;8.10;100.00;96575.09;5018518;28;20037;-80
2021/01/05 01:42:40;;;;;;;2.38;0.88;;;;;;;8.07;100.00;96588.63;5035527;28;20651;-79
2021/01/05 01:45:07;;;;;;;1.10;0.47;;;;;;;8.08;100.00;96596.53;5035798;28;20028;-80
2021/01/05 01:47:37;;;;;;;3.55;1.63;;;;;;;8.04;100.00;96589.69;5001692;28;20061;-80
2021/01/05 01:50:07;;;;;;;0.50;0.45;;;;;;;8.05;100.00;96594.06;5035576;28;20059;-80
2021/01/05 01:53:03;;;;;;;0.10;0.10;;;;;;;7.94;100.00;96593.91;5035086;28;20480;-80
2021/01/05 01:55:35;;;;;;;0.30;0.25;;;;;;;7.91;98.09;96602.13;5014178;28;20057;-80
2021/01/05 01:58:00;;;;;;;0.13;0.13;;;;;;;7.83;96.88;96596.47;4991683;28;20028;-79
2021/01/05 02:00:32;;;;;;;0.10;0.10;;;;;;;7.75;97.06;96600.59;5016566;28;20505;-79
2021/01/05 02:03:22;;;;;;;1.30;0.85;;;;;;;7.73;96.97;96607.78;4954832;28;20037;-79
2021/01/05 02:06:04;;;;;;;0.10;0.10;;;;;;;7.66;98.05;96598.53;4970283;28;20442;-80
2021/01/05 02:08:57;;;;;;;3.23;0.63;;;;;;;7.54;97.12;96598.34;4973419;28;20037;-81
2021/01/05 02:11:40;;;;;;;0.20;0.20;;;;;;;7.61;96.04;96610.31;4960824;28;20075;-80
2021/01/05 02:14:34;;;;;;;0.10;0.10;;;;;;;7.57;98.12;96613.25;4951121;28;20031;-79
2021/01/05 02:17:37;;;;;;;0.10;0.10;;;;;;;7.53;96.22;96614.44;4935076;28;20031;-79
2021/01/05 02:20:08;;;;;;;;;;;;;;;7.56;95.05;96623.06;4951255;28;20069;-79
2021/01/05 02:23:21;;;;;;;0.40;0.40;;;;;;;7.56;96.09;96622.22;4934608;28;19922;-80
2021/01/05 02:25:52;;;;;;;0.30;0.30;;;;;;;7.55;93.91;96617.84;4858635;29;20029;-79
2021/01/05 02:28:21;;;;;;;0.00;0.00;;;;;;;7.62;92.08;96617.34;4858946;29;20115;-80
2021/01/05 02:31:00;;;;;;;0.38;0.25;;;;;;;7.67;91.06;96621.50;4889782;28;20139;-79
2021/01/05 02:33:29;;;;;;;1.00;0.95;;;;;;;7.73;92.65;96629.09;4934836;28;20023;-78
2021/01/05 02:35:57;;;;;;;0.40;0.40;;;;;;;7.72;92.58;96628.22;4950666;28;20046;-79
2021/01/05 02:38:51;;;;;;;0.10;0.10;;;;;;;7.70;93.57;96630.16;4957851;28;20038;-78
2021/01/05 02:41:40;;;;;;;0.10;0.10;;;;;;;7.69;95.04;96633.75;5003667;28;20109;-80
2021/01/05 02:44:29;;;;;;;2.20;0.88;;;;;;;7.77;92.48;96630.59;4973805;28;20040;-79
2021/01/05 02:47:19;;;;;;;0.55;0.32;;;;;;;7.73;91.87;96629.94;5034577;28;20113;-79
2021/01/05 02:49:47;;;;;;;1.35;0.80;;;;;;;7.77;88.71;96634.13;5050890;28;20079;-79
2021/01/05 02:52:31;;;;;;;0.20;0.13;;;;;;;7.81;90.01;96640.97;5034368;28;20480;-80
2021/01/05 02:55:24;;;;;;;0.10;0.10;;;;;;;7.91;89.97;96647.38;5051134;28;20021;-79
2021/01/05 02:58:04;;;;;;;1.15;0.90;;;;;;;7.78;91.41;96648.28;5051070;28;20480;-79
2021/01/05 03:00:57;;;;;;;0.47;0.45;;;;;;;7.78;90.67;96638.50;5034362;28;20036;-79
2021/01/05 03:03:41;;;;;;;0.20;0.20;;;;;;;7.78;90.32;96635.84;5051057;28;20467;-80
2021/01/05 03:06:11;;;;;;;0.57;0.57;;;;;;;7.92;86.11;96641.09;4955871;28;20055;-79
2021/01/05 03:08:48;;;;;;;0.10;0.10;;;;;;;7.89;87.47;96638.63;4953178;28;20027;-79
2021/01/05 03:11:17;;;;;;;0.00;0.00;;;;;;;7.93;86.78;96637.50;4953358;28;20026;-80
2021/01/05 03:13:59;;;;;;;0.10;0.10;;;;;;;7.85;84.79;96639.78;4953205;28;20397;-80
2021/01/05 03:16:33;;;;;;;0.20;0.20;;;;;;;7.88;86.02;96647.56;4953563;28;20023;-79
2021/01/05 03:19:43;;;;;;;1.45;0.55;;;;;;;7.96;85.38;96645.28;5000144;28;20064;-79
2021/01/05 03:22:10;;;;;;;0.40;0.40;;;;;;;7.90;84.82;96648.34;4955015;28;20117;-80
2021/01/05 03:24:37;;;;;;;0.10;0.10;;;;;;;7.90;84.35;96644.81;5020944;28;20124;-80
2021/01/05 03:27:02;;;;;;;0.10;0.10;;;;;;;7.89;84.65;96646.63;5033493;28;20063;-79
2021/01/05 03:29:28;;;;;;;1.27;0.30;;;;;;;7.95;83.88;96664.88;4971579;28;20039;-79
2021/01/05 03:32:07;;;;;;;0.22;0.22;;;;;;;7.92;85.46;96657.06;4962233;28;20409;-79
2021/01/05 03:34:33;;;;;;;0.40;0.40;;;;;;;8.00;84.04;96668.06;4969488;28;20039;-79
2021/01/05 03:36:59;;;;;;;0.10;0.10;;;;;;;7.95;84.07;96662.19;4953050;28;20465;-79
2021/01/05 03:39:27;;;;;;;0.25;0.25;;;;;;;7.92;84.20;96657.06;4953215;28;20031;-81
2021/01/05 03:41:53;;;;;;;0.15;0.15;;;;;;;8.00;83.53;96670.72;4953270;28;20055;-81
2021/01/05 03:44:19;;;;;;;0.10;0.10;;;;;;;7.99;82.66;96671.69;4953089;28;20089;-80
2021/01/05 03:46:44;;;;;;;0.20;0.20;;;;;;;8.11;80.76;96675.34;4969206;28;20494;-81
2021/01/05 03:49:10;;;;;;;0.60;0.60;;;;;;;8.14;80.20;96675.16;4953099;28;20074;-79
2021/01/05 03:51:35;;;;;;;0.10;0.10;;;;;;;8.10;80.69;96678.97;4952923;28;20039;-80
2021/01/05 03:54:01;;;;;;;0.43;0.38;;;;;;;8.22;80.66;96694.13;4953390;28;20031;-79
2021/01/05 03:56:27;;;;;;;0.00;0.00;;;;;;;8.18;80.33;96698.81;4952602;28;20034;-80
2021/01/05 03:58:52;;;;;;;0.10;0.10;;;;;;;8.15;81.10;96690.19;4953194;28;20529;-80
2021/01/05 04:01:18;;;;;;;0.32;0.20;;;;;;;8.24;80.54;96702.03;4953166;28;20069;-80
2021/01/05 04:03:44;;;;;;;0.20;0.20;;;;;;;8.28;80.55;96700.88;4952604;28;20122;-80
2021/01/05 04:06:10;;;;;;;0.10;0.10;;;;;;;8.34;78.46;96719.13;4968585;28;20105;-80
2021/01/05 04:08:36;;;;;;;0.20;0.20;;;;;;;8.29;79.51;96713.25;4968773;28;20451;-80
2021/01/05 04:11:02;;;;;;;0.10;0.10;;;;;;;8.29;78.19;96711.47;4952269;28;20055;-79
2021/01/05 04:13:28;;;;;;;0.10;0.10;;;;;;;8.30;78.48;96725.66;4952849;28;20023;-79
2021/01/05 04:15:53;;;;;;;0.28;0.20;;;;;;;8.31;79.53;96722.84;4952389;28;20031;-80
2021/01/05 04:18:19;;;;;;;0.10;0.10;;;;;;;8.33;79.04;96730.75;4952490;28;20035;-80
2021/01/05 04:20:45;;;;;;;0.00;0.00;;;;;;;8.26;79.05;96722.28;4968565;28;20094;-81
2021/01/05 04:23:10;;;;;;;0.10;0.10;;;;;;;8.30;80.11;96737.16;4952410;28;20049;-81
2021/01/05 04:25:36;;;;;;;0.10;0.10;;;;;;;8.33;80.15;96733.44;4952571;28;20031;-80
2021/01/05 04:28:02;;;;;;;0.10;0.10;;;;;;;8.36;78.70;96727.91;4952281;28;20080;-80
2021/01/05 04:30:29;;;;;;;0.13;0.13;;;;;;;8.35;79.36;96735.03;4968545;28;20046;-80
2021/01/05 04:32:57;;;;;;;0.08;0.08;;;;;;;8.28;79.59;96732.84;4968077;28;20123;-81
2021/01/05 04:35:24;;;;;;;0.17;0.17;;;;;;;8.23;80.17;96741.13;4952484;28;20065;-80
2021/01/05 04:37:50;;;;;;;0.10;0.10;;;;;;;8.27;79.62;96755.13;4968970;28;20027;-80
2021/01/05 04:40:33;;;;;;;1.35;0.95;;;;;;;8.32;79.15;96767.19;4955912;28;20125;-79
2021/01/05 04:43:34;;;;;;;0.32;0.32;;;;;;;8.29;78.66;96756.75;4955618;28;20031;-79
2021/01/05 04:46:10;;;;;;;3.25;1.08;;;;;;;8.17;80.97;96755.72;4970114;28;20470;-79
2021/01/05 04:48:44;;;;;;;1.83;1.63;;;;;;;8.15;80.59;96760.25;4971629;28;20508;-79
2021/01/05 04:51:33;;;;;;;0.68;0.68;;;;;;;8.18;80.55;96764.56;5017304;28;20025;-80
2021/01/05 04:54:50;;;;;;;0.38;0.38;;;;;;;8.15;80.10;96778.91;4953911;28;20039;-81
2021/01/05 04:57:36;;;;;;;0.65;0.38;;;;;;;8.09;79.91;96755.34;4898103;28;20048;-80
2021/01/05 05:00:23;;;;;;;0.50;0.40;;;;;;;8.05;80.13;96775.16;4932303;28;20594;-80
2021/01/05 05:02:58;;;;;;;0.08;0.08;;;;;;;8.13;81.40;96786.16;4915962;28;20142;-79
2021/01/05 05:05:23;;;;;;;0.05;0.05;;;;;;;8.12;81.45;96776.44;4970598;28;20025;-78
2021/01/05 05:08:30;;;;;;;0.20;0.20;;;;;;;8.09;81.88;96787.28;5032315;28;20511;-78
2021/01/05 05:11:02;;;;;;;0.20;0.20;;;;;;;8.12;82.01;96797.75;5019197;28;20095;-79
2021/01/05 05:14:03;;;;;;;0.40;0.40;;;;;;;8.12;81.17;96796.94;4962774;28;20023;-79
2021/01/05 05:16:52;;;;;;;1.55;0.80;;;;;;;8.11;83.19;96801.38;4919348;28;20043;-79
2021/01/05 05:19:36;;;;;;;0.88;0.55;;;;;;;8.08;83.79;96811.38;4948955;28;20089;-80
2021/01/05 05:22:14;;;;;;;0.88;0.63;;;;;;;8.10;82.85;96813.00;4960291;28;20043;-81
2021/01/05 05:25:04;;;;;;;0.20;0.20;;;;;;;8.10;82.46;96820.13;4951101;29;20042;-81
2021/01/05 05:27:34;;;;;;;1.40;0.77;;;;;;;8.20;81.09;96821.25;4939005;28;20061;-79
2021/01/05 05:30:17;;;;;;;0.28;0.28;;;;;;;8.37;79.28;96825.50;4960088;28;20134;-81
2021/01/05 05:32:49;;;;;;;0.85;0.85;;;;;;;8.28;79.80;96818.97;4954933;28;20417;-79
2021/01/05 05:35:14;;;;;;;0.43;0.43;;;;;;;8.31;79.93;96825.91;5031782;28;20059;-78
2021/01/05 05:38:03;;;;;;;0.75;0.55;;;;;;;8.36;78.62;96831.81;5018173;28;20044;-80
2021/01/05 05:40:40;;;;;;;0.38;0.38;;;;;;;8.35;78.91;96835.41;4916286;28;20043;-79
2021/01/05 05:43:31;;;;;;;0.17;0.17;;;;;;;8.27;80.24;96843.88;4968604;28;20027;-82
2021/01/05 05:46:00;;;;;;;0.82;0.68;;;;;;;8.25;80.72;96836.91;4972364;28;20035;-80
2021/01/05 05:48:38;;;;;;;0.47;0.47;;;;;;;8.28;80.48;96845.59;4923572;28;20043;-80
2021/01/05 05:51:11;;;;;;;2.22;1.23;;;;;;;8.23;80.11;96834.38;4971256;28;20483;-76
2021/01/05 05:54:07;;;;;;;0.60;0.60;;;;;;;8.24;79.09;96838.75;4981436;28;20502;-78
2021/01/05 05:56:42;;;;;;;1.75;0.85;;;;;;;8.28;78.75;96850.06;4958866;28;20042;-77
2021/01/05 05:59:12;;;;;;;0.40;0.40;;;;;;;8.25;78.19;96847.56;4969398;28;20509;-78
2021/01/05 06:01:40;;;;;;;0.90;0.70;;;;;;;8.35;78.17;96851.41;4935709;29;20415;-76
2021/01/05 06:04:09;;;;;;;0.85;0.85;;;;;;;8.29;79.03;96857.13;4935123;28;20038;-77
2021/01/05 06:06:37;;;;;;;1.45;0.98;;;;;;;8.23;80.00;96865.47;4971738;28;20025;-76
2021/01/05 06:09:03;;;;;;;1.38;1.27;;;;;;;8.19;81.90;96863.00;5035024;28;20518;-77
2021/01/05 06:11:33;;;;;;;2.30;1.77;;;;;;;8.12;83.77;96867.00;5035059;28;20035;-76
2021/01/05 06:14:00;;;;;;;0.90;0.88;;;;;;;8.02;83.54;96867.69;5054096;28;20374;-78
2021/01/05 06:16:26;;;;;;;3.45;2.13;;;;;;;7.88;85.23;96863.22;5035672;28;20037;-79
2021/01/05 06:18:51;;;;;;;0.75;0.75;;;;;;;7.77;86.14;96862.19;5035217;28;20036;-76
2021/01/05 06:21:19;;;;;;;1.38;1.15;;;;;;;7.85;87.13;96878.53;5029156;28;20131;-78
2021/01/05 06:23:44;;;;;;;2.92;1.83;;;;;;;7.57;89.60;96871.38;4953962;28;20037;-78
2021/01/05 06:26:10;;;;;;;5.38;1.67;;;;;;;7.65;87.30;96874.44;4970257;28;20452;-76
2021/01/05 06:28:35;;;;;;;4.47;1.60;;;;;;;7.67;86.59;96884.97;5004305;28;20032;-76
2021/01/05 06:31:01;;;;;;;3.15;1.63;;;;;;;7.65;86.45;96877.09;5034723;28;20538;-77
2021/01/05 06:33:27;;;;;;;2.58;2.30;;;;;;;7.72;87.57;96890.91;4956625;28;20035;-78
2021/01/05 06:35:52;;;;;;;4.78;4.05;;;;;;;7.68;87.10;96887.56;4954029;28;20421;-78
2021/01/05 06:38:18;;;;;;;11.52;4.82;;;;;;;7.66;87.77;96885.94;4969657;28;20042;-78
2021/01/05 06:40:43;;;;;;;8.95;5.68;;;;;;;7.77;88.40;96902.97;4953615;28;20030;-77
2021/01/05 06:43:09;;;;;;;78.07;29.77;;;;;;;7.83;87.55;96915.03;4953402;28;20030;-78
2021/01/05 06:45:34;;;;;;;21.08;8.68;;;;;;;7.98;84.67;96911.44;4953228;28;20033;-77
2021/01/05 06:48:00;;;;;;;23.45;9.63;;;;;;;8.26;81.85;96913.22;4953204;28;20031;-77
2021/01/05 06:50:28;;;;;;;15.05;5.35;;;;;;;8.56;83.83;96919.31;4961913;28;20038;-77
2021/01/05 06:52:54;;;;;;;11.07;5.60;;;;;;;8.69;83.19;96909.56;5034742;28;20481;-78
2021/01/05 06:55:23;;;;;;;7.22;3.67;;;;;;;8.93;82.95;96918.63;5035391;28;20044;-78
2021/01/05 06:58:06;;;;;;;7.72;5.68;;;;;;;9.03;81.20;96898.41;5052686;28;20045;-78
2021/01/05 07:00:32;;;;;;;5.47;1.45;;;;;;;9.27;73.28;96901.25;5053271;28;20052;-79
2021/01/05 07:03:15;;;;;;;4.60;2.85;;;;;;;9.58;74.44;96932.06;5052636;28;20064;-77
2021/01/05 07:06:03;;;;;;;;;;;;;;;;;;;;;
2021/01/05 07:09:14;;;;;;;0.63;0.55;;;;;;;11.12;66.69;96933.53;4970996;28;20025;-79
2021/01/05 07:12:04;;;;;;;0.88;0.85;;;;;;;12.50;63.78;96961.28;4971736;28;20121;-79
2021/01/05 07:17:51;;;;;;;2.92;1.27;;;;;;;12.15;63.19;96944.44;4962012;28;20067;-78
2021/01/05 07:20:17;;;;;;;4.45;1.77;;;;;;;11.94;62.09;96957.63;4986682;28;20058;-78
2021/01/05 07:22:43;;;;;;;3.47;1.55;;;;;;;11.66;63.88;96968.75;4968966;28;20482;-78
2021/01/05 07:25:12;;;;;;;4.90;1.75;;;;;;;11.03;65.59;96958.31;4954209;28;20070;-78
2021/01/05 07:27:40;;;;;;;1.17;1.08;;;;;;;10.72;66.75;96957.84;5016342;28;20030;-78
2021/01/05 07:30:07;;;;;;;4.55;2.70;;;;;;;10.45;68.67;96961.66;4952694;28;20518;-77
2021/01/05 07:32:34;;;;;;;0.65;0.65;;;;;;;10.23;67.41;96957.81;4953287;28;20023;-79
2021/01/05 07:34:59;;;;;;;2.50;1.55;;;;;;;10.24;69.40;96954.16;5015558;28;20032;-78
2021/01/05 07:37:28;;;;;;;1.27;1.15;;;;;;;10.19;68.47;96971.47;5033660;28;20174;-77
2021/01/05 07:39:55;;;;;;;31.40;2.25;;;;;;;9.94;68.85;96963.41;4974686;28;20034;-78
2021/01/05 07:42:25;;;;;;;9.50;1.73;;;;;;;10.24;67.59;96964.84;4958928;28;20577;-77
2021/01/05 07:44:52;;;;;;;7.13;0.55;;;;;;;10.40;65.36;96969.16;5010114;28;20172;-76
2021/01/05 07:47:20;;;;;;;0.65;0.57;;;;;;;10.55;66.01;96973.41;4986088;28;20036;-78
2021/01/05 07:49:45;;;;;;;2.10;1.75;;;;;;;10.76;66.36;96982.56;4968778;28;20022;-78
2021/01/05 07:52:30;;;;;;;0.88;0.60;;;;;;;11.66;62.18;96993.69;4952970;28;20405;-78
2021/01/05 07:54:56;;;;;;;0.80;0.80;;;;;;;12.40;57.94;96979.91;5033329;28;20021;-79
2021/01/05 07:57:22;;;;;;;1.92;1.58;;;;;;;13.38;59.05;96979.13;4960214;28;20134;-78
2021/01/05 07:59:47;;;;;;;1.50;1.13;;;;;;;13.61;55.28;96989.81;4952972;28;20023;-78
2021/01/05 08:02:13;;;;;;;3.33;1.13;;;;;;;13.56;55.80;96984.84;4953120;28;20026;-76
2021/01/05 08:04:40;;;;;;;3.63;1.42;;;;;;;13.65;53.60;96989.47;4984743;28;20030;-79
2021/01/05 08:07:07;;;;;;;1.63;0.55;;;;;;;13.90;53.88;96999.00;5015794;28;20033;-79
2021/01/05 08:09:33;;;;;;;1.95;0.75;;;;;;;13.21;54.84;96987.72;4988480;28;20058;-79
2021/01/05 08:11:58;;;;;;;2.03;0.93;;;;;;;13.12;55.69;96995.69;4952189;28;20061;-77
2021/01/05 08:14:24;;;;;;;1.80;1.00;;;;;;;13.59;54.63;97006.09;4954681;28;20114;-78
2021/01/05 08:16:50;;;;;;;4.18;1.75;;;;;;;14.06;52.28;97004.78;4955737;28;20609;-78
2021/01/05 08:19:16;;;;;;;0.88;0.70;;;;;;;14.74;53.19;97017.75;4989363;28;20460;-79
2021/01/05 08:21:41;;;;;;;2.10;0.93;;;;;;;14.67;49.69;97018.41;4955711;28;20043;-78
2021/01/05 08:24:07;;;;;;;0.93;0.93;;;;;;;14.73;51.45;97020.59;4955480;28;20517;-77
2021/01/05 08:26:33;;;;;;;1.20;0.88;;;;;;;14.67;51.40;97031.88;4989119;28;20504;-77
2021/01/05 08:28:59;;;;;;;1.65;1.08;;;;;;;14.41;51.08;97024.19;4955556;28;20118;-77
2021/01/05 08:31:36;;;;;;;1.25;0.90;;;;;;;14.32;51.35;97026.78;5027490;28;20056;-79
2021/01/05 08:34:02;;;;;;;1.63;1.15;;;;;;;14.18;51.97;97025.25;5037374;28;20017;-77
2021/01/05 08:36:34;;;;;;;1.50;0.98;;;;;;;14.69;47.01;97014.59;4996267;28;20034;-78
2021/01/05 08:39:00;;;;;;;0.70;0.70;;;;;;;14.62;47.92;97035.81;5012684;28;20024;-78
2021/01/05 08:41:30;;;;;;;0.68;0.50;;;;;;;15.04;46.23;97031.19;5036589;28;20048;-79
2021/01/05 08:43:56;;;;;;;0.85;0.63;;;;;;;15.64;45.94;97019.53;5015255;28;20490;-79
2021/01/05 08:46:26;;;;;;;1.48;0.98;;;;;;;17.23;42.31;97033.28;4988591;28;20056;-79
2021/01/05 08:48:55;;;;;;;1.77;0.95;;;;;;;19.13;39.39;97040.16;4990092;28;20100;-77
2021/01/05 08:51:22;;;;;;;0.35;0.35;;;;;;;19.76;35.54;97043.34;5018733;28;20031;-80
2021/01/05 08:53:49;;;;;;;2.13;1.30;;;;;;;20.84;34.02;97051.38;5036495;28;20488;-79
2021/01/05 08:56:20;;;;;;;0.80;0.80;;;;;;;20.30;34.81;97061.00;4971507;28;20069;-78
2021/01/05 08:58:46;;;;;;;0.10;0.10;;;;;;;18.93;36.63;97054.91;4939261;28;20395;-78
2021/01/05 09:01:12;;;;;;;1.48;1.13;;;;;;;19.27;37.13;97058.53;5004578;28;20030;-78
2021/01/05 09:03:37;;;;;;;0.43;0.40;;;;;;;18.55;36.55;97052.59;4987996;28;20491;-78
2021/01/05 09:06:04;;;;;;;0.35;0.35;;;;;;;19.05;36.02;97055.50;4954565;28;20085;-77
2021/01/05 09:08:32;;;;;;;0.40;0.40;;;;;;;19.70;35.42;97070.28;4987939;28;20029;-79
2021/01/05 09:11:03;;;;;;;4.53;0.63;;;;;;;19.93;34.11;97064.09;4955057;28;20035;-78
2021/01/05 09:13:28;;;;;;;0.63;0.45;;;;;;;20.35;32.52;97052.38;4991253;28;20060;-79
2021/01/05 09:15:55;;;;;;;34.65;2.15;;;;;;;20.29;33.59;97062.03;5018049;28;20070;-78
2021/01/05 09:18:21;;;;;;;0.40;0.40;;;;;;;21.18;33.46;97042.19;4987987;28;20473;-78
2021/01/05 09:20:55;;;;;;;0.80;0.80;;;;;;;20.17;33.77;97065.19;4987930;28;20118;-79
2021/01/05 09:23:24;;;;;;;1.33;0.93;;;;;;;18.98;34.26;97057.16;5019570;28;20033;-78
2021/01/05 09:25:51;;;;;;;3.00;0.88;;;;;;;19.51;34.17;97055.13;5017332;28;20020;-79
2021/01/05 09:28:18;;;;;;;1.42;1.00;;;;;;;20.61;34.19;97050.34;4972244;28;20031;-78
2021/01/05 09:30:48;;;;;;;0.95;0.75;;;;;;;19.32;34.02;97056.16;5037893;28;20049;-78
2021/01/05 09:33:13;;;;;;;0.45;0.45;;;;;;;19.85;32.77;97034.22;4987758;28;20026;-79
2021/01/05 09:35:39;;;;;;;0.90;0.60;;;;;;;20.52;33.22;97052.19;4953823;28;20041;-75
2021/01/05 09:38:08;;;;;;;0.75;0.50;;;;;;;21.18;32.78;97064.78;4953867;28;20085;-73
2021/01/05 09:40:35;;;;;;;1.00;0.90;;;;;;;20.88;32.06;97057.31;4954001;28;20034;-77
2021/01/05 09:43:11;;;;;;;0.52;0.52;;;;;;;21.45;31.85;97068.97;4954455;28;20100;-78
2021/01/05 09:45:55;;;;;;;1.63;0.80;;;;;;;21.13;31.34;97061.75;5026924;28;20021;-77
2021/01/05 09:48:23;;;;;;;0.40;0.28;;;;;;;20.17;31.88;97057.06;4972958;28;20437;-78
2021/01/05 09:50:49;;;;;;;0.63;0.47;;;;;;;20.98;30.61;97052.53;4970298;28;20084;-77
2021/01/05 09:53:15;;;;;;;2.72;0.75;;;;;;;22.11;28.77;97042.19;4953871;28;20011;-75
2021/01/05 09:55:41;;;;;;;3.20;0.73;;;;;;;21.48;31.00;97060.47;4993950;28;20148;-78
2021/01/05 09:58:07;;;;;;;2.10;1.45;;;;;;;22.32;29.44;97052.44;5035193;28;20129;-76
2021/01/05 10:00:33;;;;;;;4.78;3.55;;;;;;;21.15;29.89;97047.97;5034989;28;20147;-76
2021/01/05 10:02:59;;;;;;;5.68;4.45;;;;;;;21.73;30.49;97048.47;5034823;28;20036;-78
2021/01/05 10:05:25;;;;;;;9.35;4.22;;;;;;;21.72;30.14;97046.75;5035225;28;20025;-76
2021/01/05 10:07:51;;;;;;;3.65;2.97;;;;;;;19.97;30.96;97045.63;4972506;28;20027;-75
2021/01/05 10:10:23;;;;;;;7.60;4.07;;;;;;;19.23;33.83;97048.16;4995740;28;20025;-76
2021/01/05 10:12:49;;;;;;;5.53;3.75;;;;;;;21.00;29.64;97045.94;4991501;28;20096;-76
2021/01/05 10:15:16;;;;;;;4.93;3.50;;;;;;;21.39;29.88;97050.63;4953869;28;20489;-77
2021/01/05 10:17:41;;;;;;;4.13;3.17;;;;;;;20.64;30.71;97027.44;4993017;28;20478;-77
2021/01/05 10:20:09;;;;;;;7.70;5.15;;;;;;;20.80;31.00;97043.72;4998620;28;20122;-77
2021/01/05 10:22:35;;;;;;;7.68;5.00;;;;;;;20.22;31.56;97050.09;5021673;28;20136;-77
2021/01/05 10:25:01;;;;;;;8.00;4.70;;;;;;;20.19;32.01;97046.88;5034530;28;20555;-77
2021/01/05 10:27:26;;;;;;;17.08;5.22;;;;;;;19.27;33.99;97035.97;5034741;28;20029;-75
2021/01/05 10:29:54;;;;;;;12.98;6.53;;;;;;;20.01;31.79;97034.28;5024164;28;20141;-76
2021/01/05 10:32:20;;;;;;;4.22;2.55;;;;;;;20.57;29.79;97020.97;4987224;28;20038;-76
2021/01/05 10:34:45;;;;;;;6.70;4.47;;;;;;;20.39;29.53;97057.31;4992651;28;20019;-78
2021/01/05 10:37:11;;;;;;;7.25;4.43;;;;;;;19.24;31.53;97052.56;5034136;28;20037;-78
2021/01/05 10:39:37;;;;;;;5.72;3.05;;;;;;;18.79;30.88;97059.06;5034278;28;20029;-76
2021/01/05 10:42:04;;;;;;;11.45;3.22;;;;;;;18.78;31.63;97061.91;4985559;28;20034;-73
2021/01/05 10:44:29;;;;;;;4.50;3.08;;;;;;;19.23;31.08;97053.56;4952946;28;20029;-73
2021/01/05 10:46:59;;;;;;;6.70;4.38;;;;;;;20.61;29.23;97054.94;4968719;28;20161;-74
2021/01/05 10:49:25;;;;;;;10.45;5.05;;;;;;;21.16;29.69;97072.28;4995784;28;20132;-74
2021/01/05 10:51:53;;;;;;;13.48;5.00;;;;;;;21.49;27.85;97062.19;5043964;28;20020;-73
2021/01/05 10:54:20;;;;;;;9.43;4.93;;;;;;;21.89;27.04;97067.50;4969023;28;20040;-73
2021/01/05 10:56:46;;;;;;;7.63;4.63;;;;;;;21.68;27.79;97063.66;4968702;28;20093;-73
2021/01/05 10:59:13;;;;;;;13.15;6.60;;;;;;;20.41;29.18;97068.00;4987624;28;20021;-74
2021/01/05 11:01:39;;;;;;;4.53;2.58;;;;;;;18.93;31.38;97057.63;5016427;28;20081;-73
2021/01/05 11:04:05;;;;;;;12.65;5.72;;;;;;;18.26;32.21;97055.50;5016391;28;20021;-73
2021/01/05 11:06:30;;;;;;;13.23;7.55;;;;;;;17.47;33.87;97057.97;5013832;28;20038;-74
2021/01/05 11:08:56;;;;;;;5.50;3.60;;;;;;;17.97;32.29;97054.84;4962508;28;20038;-75
2021/01/05 11:11:22;;;;;;;3.83;2.90;;;;;;;19.27;30.89;97046.81;5023431;28;20029;-75
2021/01/05 11:13:48;;;;;;;4.22;3.00;;;;;;;19.41;30.72;97054.41;5016556;28;20025;-75
2021/01/05 11:16:14;;;;;;;4.47;2.50;;;;;;;19.89;29.45;97049.19;4989002;28;20035;-75
2021/01/05 11:18:43;;;;;;;4.45;3.42;;;;;;;21.07;27.99;97049.63;4949889;28;20488;-75
2021/01/05 11:21:11;;;;;;;4.97;3.10;;;;;;;20.99;28.61;97038.78;4999493;28;20075;-76
2021/01/05 11:23:37;;;;;;;3.90;2.40;;;;;;;21.66;27.07;97047.47;5023741;28;20453;-76
2021/01/05 11:26:06;;;;;;;3.83;3.25;;;;;;;22.95;25.40;97034.97;5016988;28;20039;-76
2021/01/05 11:28:31;;;;;;;6.15;4.10;;;;;;;23.34;25.62;97030.13;5036874;28;20025;-76
2021/01/05 11:30:57;;;;;;;3.88;3.47;;;;;;;23.36;24.13;97016.28;4979571;28;20062;-76
2021/01/05 11:33:23;;;;;;;6.32;3.25;;;;;;;23.38;24.70;97036.06;5015568;28;20032;-75
2021/01/05 11:35:49;;;;;;;4.55;3.30;;;;;;;23.20;24.32;97034.53;4978529;28;20058;-76
2021/01/05 11:38:15;;;;;;;6.93;3.88;;;;;;;23.47;24.33;97046.72;5010853;28;20029;-76
2021/01/05 11:40:40;;;;;;;5.68;3.45;;;;;;;23.14;25.20;97040.72;4975229;28;20050;-76
2021/01/05 11:43:06;;;;;;;5.93;2.30;;;;;;;22.19;25.81;97049.47;4976057;28;20513;-75
2021/01/05 11:45:31;;;;;;;3.88;2.25;;;;;;;22.10;26.30;97042.38;4962046;28;20092;-76
2021/01/05 11:47:57;;;;;;;3.70;2.40;;;;;;;22.84;26.08;97047.16;5009755;28;20092;-77
2021/01/05 11:50:23;;;;;;;10.18;4.90;;;;;;;21.67;27.50;97057.34;5003292;28;20432;-76
2021/01/05 11:52:48;;;;;;;2.78;2.13;;;;;;;21.27;27.24;97047.44;4998837;28;20037;-76
2021/01/05 11:55:14;;;;;;;3.75;2.85;;;;;;;21.38;27.08;97043.50;4962034;28;20035;-76